createdAt,value
2023-04-09T00:00:38.556Z,170.12
2023-04-09T00:01:38.551Z,170.94
2023-04-09T00:02:38.585Z,172.18
2023-04-09T00:03:38.543Z,172.34
2023-04-09T00:04:38.504Z,172.52
2023-04-09T00:05:38.469Z,172.55
2023-04-09T00:06:38.462Z,173.50
2023-04-09T00:07:38.443Z,174.16
2023-04-09T00:08:38.430Z,175.85
2023-04-09T00:09:38.479Z,176.98
2023-04-09T00:10:38.494Z,179.13
2023-04-09T00:11:38.451Z,177.53
2023-04-09T00:12:38.435Z,178.72
2023-04-09T00:13:39.689Z,178.78
2023-04-09T00:14:38.424Z,179.05
2023-04-09T00:15:38.351Z,179.31
2023-04-09T00:16:38.386Z,179.55
2023-04-09T00:17:38.394Z,181.49
2023-04-09T00:18:38.365Z,181.04
2023-04-09T00:19:38.311Z,180.23
2023-04-09T00:20:38.301Z,183.26
2023-04-09T00:21:38.265Z,182.67
2023-04-09T00:22:38.260Z,179.52
2023-04-09T00:23:38.267Z,181.87
2023-04-09T00:24:38.276Z,181.81
2023-04-09T00:25:38.247Z,181.51
2023-04-09T00:26:38.240Z,180.43
2023-04-09T00:27:38.237Z,182.24
2023-04-09T00:28:38.275Z,183.53
2023-04-09T00:29:38.320Z,180.89
2023-04-09T00:30:38.341Z,179.67
2023-04-09T00:31:38.385Z,181.37
2023-04-09T00:32:38.369Z,181.48
2023-04-09T00:33:38.350Z,181.66
2023-04-09T00:34:38.320Z,181.64
2023-04-09T00:35:38.401Z,181.71
2023-04-09T00:36:38.288Z,181.81
2023-04-09T00:37:38.286Z,182.87
2023-04-09T00:38:38.373Z,182.97
2023-04-09T00:39:38.278Z,185.80
2023-04-09T00:40:38.230Z,181.72
2023-04-09T00:41:38.228Z,182.62
2023-04-09T00:42:38.259Z,182.95
2023-04-09T00:43:38.190Z,184.55
2023-04-09T00:44:38.170Z,189.22
2023-04-09T00:45:38.159Z,186.62
2023-04-09T00:46:38.198Z,187.72
2023-04-09T00:47:38.156Z,182.57
2023-04-09T00:48:38.168Z,184.19
2023-04-09T00:49:38.109Z,187.47
2023-04-09T00:50:38.065Z,184.84
2023-04-09T00:51:38.082Z,184.16
2023-04-09T00:52:38.076Z,187.08
2023-04-09T00:53:38.107Z,186.62
2023-04-09T00:54:38.178Z,186.65
2023-04-09T00:55:38.125Z,186.74
2023-04-09T00:56:38.213Z,186.76
2023-04-09T00:57:38.107Z,184.07
2023-04-09T00:58:38.122Z,186.81
2023-04-09T00:59:38.085Z,187.22
2023-04-09T01:00:38.111Z,185.49
2023-04-09T01:01:38.160Z,186.88
2023-04-09T01:02:38.314Z,187.10
2023-04-09T01:03:38.189Z,186.87
2023-04-09T01:04:38.093Z,187.18
2023-04-09T01:05:38.024Z,187.57
2023-04-09T01:06:38.020Z,187.93
2023-04-09T01:07:37.994Z,190.33
2023-04-09T01:08:37.996Z,188.00
2023-04-09T01:09:38.033Z,186.63
2023-04-09T01:10:38.169Z,186.71
2023-04-09T01:11:38.026Z,186.74
2023-04-09T01:12:37.962Z,188.47
2023-04-09T01:13:37.965Z,187.60
2023-04-09T01:14:38.007Z,187.76
2023-04-09T01:15:38.011Z,187.31
2023-04-09T01:16:37.998Z,187.97
2023-04-09T01:17:38.010Z,186.13
2023-04-09T01:18:37.917Z,187.09
2023-04-09T01:19:37.942Z,185.74
2023-04-09T01:20:37.945Z,185.06
2023-04-09T01:21:37.907Z,187.50
2023-04-09T01:22:37.845Z,187.69
2023-04-09T01:23:37.808Z,187.65
2023-04-09T01:24:37.921Z,188.64
2023-04-09T01:25:38.204Z,188.40
2023-04-09T01:26:37.821Z,187.89
2023-04-09T01:27:37.811Z,185.97
2023-04-09T01:28:37.719Z,187.67
2023-04-09T01:29:37.754Z,187.49
2023-04-09T01:30:37.718Z,186.68
2023-04-09T01:31:37.658Z,186.28
2023-04-09T01:32:37.730Z,186.21
2023-04-09T01:33:37.637Z,186.37
2023-04-09T01:34:37.621Z,186.80
2023-04-09T01:35:37.686Z,186.64
2023-04-09T01:36:37.626Z,186.46
2023-04-09T01:37:37.560Z,186.53
2023-04-09T01:38:37.556Z,187.24
2023-04-09T01:39:37.564Z,187.55
2023-04-09T01:40:37.597Z,189.29
2023-04-09T01:41:37.524Z,190.19
2023-04-09T01:42:37.574Z,189.17
2023-04-09T01:43:37.486Z,188.37
2023-04-09T01:44:37.466Z,188.54
2023-04-09T01:45:37.512Z,188.48
2023-04-09T01:46:37.437Z,188.52
2023-04-09T01:47:37.444Z,188.60
2023-04-09T01:48:37.446Z,189.15
2023-04-09T01:49:37.371Z,188.63
2023-04-09T01:50:37.436Z,189.31
2023-04-09T01:51:37.347Z,188.71
2023-04-09T01:52:37.326Z,189.31
2023-04-09T01:53:37.352Z,190.10
2023-04-09T01:54:37.321Z,189.30
2023-04-09T01:55:37.291Z,191.56
2023-04-09T01:56:37.306Z,189.91
2023-04-09T01:57:37.272Z,190.79
2023-04-09T01:58:37.227Z,190.81
2023-04-09T01:59:37.235Z,187.10
2023-04-09T02:00:37.226Z,187.34
2023-04-09T02:01:37.272Z,187.73
2023-04-09T02:02:37.367Z,188.28
2023-04-09T02:03:37.263Z,189.30
2023-04-09T02:04:37.191Z,187.33
2023-04-09T02:05:37.105Z,187.96
2023-04-09T02:06:37.095Z,188.90
2023-04-09T02:07:37.072Z,190.42
2023-04-09T02:08:37.061Z,187.41
2023-04-09T02:09:37.059Z,188.27
2023-04-09T02:10:37.041Z,188.67
2023-04-09T02:11:37.025Z,190.72
2023-04-09T02:12:36.988Z,190.84
2023-04-09T02:13:36.969Z,191.93
2023-04-09T02:14:36.972Z,191.48
2023-04-09T02:15:36.989Z,189.38
2023-04-09T02:16:36.940Z,190.34
2023-04-09T02:17:37.096Z,190.36
2023-04-09T02:18:36.907Z,190.68
2023-04-09T02:19:36.911Z,191.05
2023-04-09T02:20:39.803Z,191.96
2023-04-09T02:21:36.881Z,190.75
2023-04-09T02:22:36.923Z,191.28
2023-04-09T02:23:36.856Z,192.41
2023-04-09T02:24:36.965Z,192.44
2023-04-09T02:25:37.214Z,193.04
2023-04-09T02:26:36.832Z,193.04
2023-04-09T02:27:36.831Z,193.55
2023-04-09T02:28:36.884Z,192.14
2023-04-09T02:29:36.902Z,190.96
2023-04-09T02:30:36.805Z,193.32
2023-04-09T02:31:36.864Z,193.37
2023-04-09T02:32:36.850Z,192.20
2023-04-09T02:33:36.809Z,193.49
2023-04-09T02:34:36.796Z,193.50
2023-04-09T02:35:36.862Z,193.46
2023-04-09T02:36:36.884Z,187.33
2023-04-09T02:37:36.815Z,179.03
2023-04-09T02:38:36.716Z,159.31
2023-04-09T02:39:36.713Z,149.31
2023-04-09T02:40:36.750Z,129.36
2023-04-09T02:41:36.756Z,119.16
2023-04-09T02:42:36.719Z,101.45
2023-04-09T02:43:36.719Z,83.37
2023-04-09T02:44:36.687Z,73.82
2023-04-09T02:45:36.728Z,61.83
2023-04-09T02:46:36.728Z,45.94
2023-04-09T02:47:36.696Z,33.71
2023-04-09T02:48:36.698Z,27.17
2023-04-09T02:49:36.677Z,24.15
2023-04-09T02:50:36.763Z,25.00
2023-04-09T02:51:36.761Z,25.29
2023-04-09T02:52:36.661Z,25.16
2023-04-09T02:53:36.672Z,25.69
2023-04-09T02:54:36.735Z,26.01
2023-04-09T02:55:36.815Z,23.46
2023-04-09T02:56:36.792Z,4.25
2023-04-09T02:57:36.817Z,0.00
2023-04-09T02:58:36.781Z,0.00
2023-04-09T02:59:36.780Z,0.00
2023-04-09T03:00:36.782Z,0.00
2023-04-09T03:01:36.859Z,0.00
2023-04-09T03:02:36.881Z,0.00
2023-04-09T03:03:36.843Z,3.18
2023-04-09T03:04:36.780Z,25.94
2023-04-09T03:05:36.788Z,30.95
2023-04-09T03:06:36.789Z,24.89
2023-04-09T03:07:36.874Z,28.05
2023-04-09T03:08:36.863Z,28.22
2023-04-09T03:09:36.936Z,29.49
2023-04-09T03:10:36.864Z,24.34
2023-04-09T03:11:36.959Z,25.57
2023-04-09T03:12:36.866Z,25.47
2023-04-09T03:13:36.900Z,26.11
2023-04-09T03:14:36.878Z,28.73
2023-04-09T03:15:36.920Z,24.79
2023-04-09T03:16:36.885Z,29.93
2023-04-09T03:17:36.979Z,34.62
2023-04-09T03:18:36.982Z,25.00
2023-04-09T03:19:37.023Z,35.88
2023-04-09T03:20:37.059Z,38.80
2023-04-09T03:21:37.674Z,37.11
2023-04-09T03:22:37.128Z,35.28
2023-04-09T03:23:37.193Z,37.18
2023-04-09T03:24:37.117Z,25.33
2023-04-09T03:25:37.091Z,24.59
2023-04-09T03:26:37.100Z,28.75
2023-04-09T03:27:37.092Z,25.33
2023-04-09T03:28:37.100Z,27.96
2023-04-09T03:29:37.138Z,26.03
2023-04-09T03:30:37.096Z,28.49
2023-04-09T03:31:37.214Z,28.31
2023-04-09T03:32:37.110Z,26.50
2023-04-09T03:33:37.076Z,27.12
2023-04-09T03:34:37.107Z,33.54
2023-04-09T03:35:37.092Z,29.91
2023-04-09T03:36:37.116Z,32.21
2023-04-09T03:37:37.177Z,34.58
2023-04-09T03:38:37.118Z,23.25
2023-04-09T03:39:37.145Z,25.99
2023-04-09T03:40:37.091Z,32.74
2023-04-09T03:41:37.123Z,27.78
2023-04-09T03:42:37.091Z,27.82
2023-04-09T03:43:37.167Z,26.82
2023-04-09T03:44:37.097Z,24.32
2023-04-09T03:45:37.101Z,26.79
2023-04-09T03:46:37.122Z,21.83
2023-04-09T03:47:37.162Z,23.02
2023-04-09T03:48:37.102Z,13.41
2023-04-09T03:49:37.123Z,13.54
2023-04-09T03:50:37.096Z,8.94
2023-04-09T03:51:37.101Z,9.64
2023-04-09T03:52:37.119Z,7.96
2023-04-09T03:53:37.095Z,0.00
2023-04-09T03:54:37.115Z,0.00
2023-04-09T03:55:37.135Z,0.00
2023-04-09T03:56:37.101Z,0.00
2023-04-09T03:57:37.108Z,0.00
2023-04-09T03:58:37.074Z,0.00
2023-04-09T03:59:37.090Z,0.00
2023-04-09T04:00:37.077Z,0.00
2023-04-09T04:01:37.138Z,0.00
2023-04-09T04:02:37.182Z,0.00
2023-04-09T04:03:37.209Z,0.00
2023-04-09T04:04:37.077Z,0.00
2023-04-09T04:05:37.068Z,0.00
2023-04-09T04:06:37.051Z,0.00
2023-04-09T04:07:37.090Z,0.00
2023-04-09T04:08:37.120Z,0.00
2023-04-09T04:09:37.066Z,21.71
2023-04-09T04:10:37.047Z,28.42
2023-04-09T04:11:37.070Z,27.37
2023-04-09T04:12:37.124Z,25.00
2023-04-09T04:13:37.024Z,25.08
2023-04-09T04:14:37.054Z,20.89
2023-04-09T04:15:37.025Z,18.11
2023-04-09T04:16:37.084Z,17.71
2023-04-09T04:17:37.072Z,15.21
2023-04-09T04:18:37.036Z,21.90
2023-04-09T04:19:37.058Z,22.50
2023-04-09T04:20:44.198Z,22.52
2023-04-09T04:21:37.036Z,20.13
2023-04-09T04:22:37.048Z,25.40
2023-04-09T04:23:37.041Z,23.69
2023-04-09T04:24:37.045Z,19.37
2023-04-09T04:25:37.041Z,18.67
2023-04-09T04:26:37.056Z,34.68
2023-04-09T04:27:37.066Z,26.46
2023-04-09T04:28:37.064Z,31.32
2023-04-09T04:29:37.088Z,35.85
2023-04-09T04:30:37.085Z,32.42
2023-04-09T04:31:37.133Z,32.22
2023-04-09T04:32:37.163Z,31.13
2023-04-09T04:33:37.067Z,30.30
2023-04-09T04:34:37.061Z,30.59
2023-04-09T04:35:37.177Z,29.24
2023-04-09T04:36:42.871Z,33.38
2023-04-09T04:37:37.072Z,33.40
2023-04-09T04:38:37.081Z,34.36
2023-04-09T04:39:37.196Z,33.43
2023-04-09T04:40:37.105Z,33.15
2023-04-09T04:41:37.115Z,36.36
2023-04-09T04:42:37.107Z,38.92
2023-04-09T04:43:37.168Z,41.39
2023-04-09T04:44:37.124Z,35.54
2023-04-09T04:45:37.170Z,38.60
2023-04-09T04:46:37.116Z,39.82
2023-04-09T04:47:37.213Z,36.83
2023-04-09T04:48:37.125Z,40.06
2023-04-09T04:49:37.159Z,29.06
2023-04-09T04:50:37.155Z,26.05
2023-04-09T04:51:37.151Z,26.99
2023-04-09T04:52:37.175Z,25.37
2023-04-09T04:53:37.164Z,29.83
2023-04-09T04:54:37.176Z,31.17
2023-04-09T04:55:37.197Z,34.37
2023-04-09T04:56:37.174Z,26.26
2023-04-09T04:57:37.185Z,30.02
2023-04-09T04:58:37.172Z,31.29
2023-04-09T04:59:37.173Z,26.63
2023-04-09T05:00:37.170Z,26.67
2023-04-09T05:01:37.276Z,31.40
2023-04-09T05:02:37.290Z,31.49
2023-04-09T05:03:37.280Z,31.40
2023-04-09T05:04:37.177Z,31.64
2023-04-09T05:05:37.182Z,31.48
2023-04-09T05:06:37.225Z,30.66
2023-04-09T05:07:37.188Z,30.19
2023-04-09T05:08:37.181Z,31.50
2023-04-09T05:09:37.181Z,36.38
2023-04-09T05:10:37.177Z,31.36
2023-04-09T05:11:37.174Z,30.66
2023-04-09T05:12:37.172Z,25.14
2023-04-09T05:13:37.154Z,27.21
2023-04-09T05:14:37.163Z,27.40
2023-04-09T05:15:37.163Z,32.14
2023-04-09T05:16:37.192Z,32.53
2023-04-09T05:17:37.198Z,36.41
2023-04-09T05:18:37.170Z,43.40
2023-04-09T05:19:37.183Z,43.04
2023-04-09T05:20:37.200Z,45.24
2023-04-09T05:21:37.177Z,55.93
2023-04-09T05:22:37.195Z,55.61
2023-04-09T05:23:37.206Z,53.58
2023-04-09T05:24:37.203Z,52.02
2023-04-09T05:25:37.178Z,51.70
2023-04-09T05:26:37.200Z,48.32
2023-04-09T05:27:37.251Z,44.43
2023-04-09T05:28:37.203Z,41.42
2023-04-09T05:29:37.223Z,44.93
2023-04-09T05:30:37.257Z,41.16
2023-04-09T05:31:37.224Z,42.51
2023-04-09T05:32:37.233Z,40.67
2023-04-09T05:33:37.206Z,43.47
2023-04-09T05:34:37.252Z,41.88
2023-04-09T05:35:37.251Z,41.84
2023-04-09T05:36:37.220Z,39.45
2023-04-09T05:37:37.249Z,47.88
2023-04-09T05:38:37.235Z,49.57
2023-04-09T05:39:37.220Z,49.60
2023-04-09T05:40:37.224Z,50.39
2023-04-09T05:41:37.269Z,54.59
2023-04-09T05:42:37.245Z,59.63
2023-04-09T05:43:37.257Z,64.36
2023-04-09T05:44:37.293Z,63.86
2023-04-09T05:45:37.291Z,70.20
2023-04-09T05:46:37.250Z,70.26
2023-04-09T05:47:37.336Z,71.94
2023-04-09T05:48:37.339Z,67.85
2023-04-09T05:49:37.255Z,59.72
2023-04-09T05:50:47.127Z,59.62
2023-04-09T05:51:38.250Z,59.65
2023-04-09T05:52:37.233Z,59.82
2023-04-09T05:53:37.275Z,60.73
2023-04-09T05:54:37.237Z,61.73
2023-04-09T05:55:37.240Z,57.14
2023-04-09T05:56:37.338Z,60.48
2023-04-09T05:57:37.255Z,61.20
2023-04-09T05:58:37.246Z,57.68
2023-04-09T05:59:37.248Z,61.60
2023-04-09T06:00:37.241Z,50.74
2023-04-09T06:01:37.279Z,50.74
2023-04-09T06:02:37.396Z,49.03
2023-04-09T06:03:37.389Z,44.96
2023-04-09T06:04:37.328Z,39.77
2023-04-09T06:05:37.347Z,44.32
2023-04-09T06:06:37.286Z,43.81
2023-04-09T06:07:37.297Z,38.62
2023-04-09T06:08:37.287Z,35.67
2023-04-09T06:09:37.357Z,31.22
2023-04-09T06:10:37.322Z,30.82
2023-04-09T06:11:37.346Z,34.86
2023-04-09T06:12:37.330Z,30.60
2023-04-09T06:13:37.327Z,32.22
2023-04-09T06:14:37.336Z,36.94
2023-04-09T06:15:37.346Z,37.95
2023-04-09T06:16:37.332Z,39.08
2023-04-09T06:17:37.430Z,34.44
2023-04-09T06:18:37.355Z,30.72
2023-04-09T06:19:37.486Z,32.09
2023-04-09T06:20:37.375Z,32.76
2023-04-09T06:21:37.373Z,38.23
2023-04-09T06:22:37.412Z,41.34
2023-04-09T06:23:37.426Z,38.49
2023-04-09T06:24:37.428Z,39.80
2023-04-09T06:25:37.454Z,44.91
2023-04-09T06:26:37.449Z,44.95
2023-04-09T06:27:37.463Z,40.95
2023-04-09T06:28:37.494Z,39.30
2023-04-09T06:29:37.495Z,40.92
2023-04-09T06:30:37.494Z,39.68
2023-04-09T06:31:37.530Z,40.16
2023-04-09T06:32:47.017Z,42.20
2023-04-09T06:33:38.494Z,42.24
2023-04-09T06:34:37.483Z,40.00
2023-04-09T06:35:37.564Z,40.56
2023-04-09T06:36:37.575Z,38.85
2023-04-09T06:37:37.552Z,42.76
2023-04-09T06:38:37.535Z,43.94
2023-04-09T06:39:40.343Z,44.28
2023-04-09T06:40:37.530Z,44.30
2023-04-09T06:41:37.542Z,44.69
2023-04-09T06:42:37.577Z,46.97
2023-04-09T06:43:37.557Z,46.51
2023-04-09T06:44:37.570Z,48.93
2023-04-09T06:45:38.580Z,51.60
2023-04-09T06:46:37.742Z,57.47
2023-04-09T06:47:37.567Z,60.96
2023-04-09T06:48:37.567Z,60.99
2023-04-09T06:49:37.589Z,59.12
2023-04-09T06:50:37.582Z,56.63
2023-04-09T06:51:37.598Z,54.73
2023-04-09T06:52:37.601Z,64.34
2023-04-09T06:53:37.619Z,66.77
2023-04-09T06:54:37.600Z,64.01
2023-04-09T06:55:37.612Z,62.96
2023-04-09T06:56:37.656Z,66.85
2023-04-09T06:57:37.602Z,67.47
2023-04-09T06:58:37.600Z,69.03
2023-04-09T06:59:37.610Z,75.36
2023-04-09T07:00:37.623Z,78.23
2023-04-09T07:01:37.676Z,78.80
2023-04-09T07:02:38.009Z,73.97
2023-04-09T07:03:37.777Z,71.80
2023-04-09T07:04:37.726Z,79.29
2023-04-09T07:05:37.652Z,79.79
2023-04-09T07:06:37.645Z,90.37
2023-04-09T07:07:37.658Z,97.69
2023-04-09T07:08:37.676Z,98.44
2023-04-09T07:09:37.720Z,111.29
2023-04-09T07:10:37.672Z,120.50
2023-04-09T07:11:37.696Z,125.84
2023-04-09T07:12:37.666Z,135.18
2023-04-09T07:13:37.703Z,143.20
2023-04-09T07:14:37.684Z,158.24
2023-04-09T07:15:38.816Z,163.18
2023-04-09T07:16:37.762Z,169.53
2023-04-09T07:17:37.791Z,176.74
2023-04-09T07:18:37.817Z,187.10
2023-04-09T07:19:37.690Z,198.58
2023-04-09T07:20:37.698Z,203.93
2023-04-09T07:21:37.696Z,211.59
2023-04-09T07:22:37.723Z,223.11
2023-04-09T07:23:37.703Z,225.81
2023-04-09T07:24:37.726Z,233.18
2023-04-09T07:25:37.663Z,247.06
2023-04-09T07:26:37.691Z,246.42
2023-04-09T07:27:37.684Z,248.46
2023-04-09T07:28:37.679Z,248.58
2023-04-09T07:29:37.720Z,248.00
2023-04-09T07:30:37.671Z,247.94
2023-04-09T07:31:37.792Z,248.95
2023-04-09T07:32:37.712Z,249.25
2023-04-09T07:33:37.646Z,250.00
2023-04-09T07:34:37.699Z,247.85
2023-04-09T07:35:37.684Z,245.19
2023-04-09T07:36:37.609Z,233.66
2023-04-09T07:37:37.665Z,225.35
2023-04-09T07:38:37.612Z,216.26
2023-04-09T07:39:37.600Z,212.59
2023-04-09T07:40:37.605Z,210.50
2023-04-09T07:41:37.612Z,202.92
2023-04-09T07:42:37.614Z,199.10
2023-04-09T07:43:37.641Z,197.12
2023-04-09T07:44:37.641Z,198.13
2023-04-09T07:45:37.579Z,192.57
2023-04-09T07:46:37.641Z,194.23
2023-04-09T07:47:37.649Z,189.50
2023-04-09T07:48:37.616Z,191.78
2023-04-09T07:49:37.639Z,181.14
2023-04-09T07:50:37.645Z,179.14
2023-04-09T07:51:37.627Z,175.60
2023-04-09T07:52:37.647Z,172.61
2023-04-09T07:53:37.626Z,176.50
2023-04-09T07:54:37.637Z,173.45
2023-04-09T07:55:37.641Z,167.24
2023-04-09T07:56:37.651Z,166.30
2023-04-09T07:57:37.670Z,166.33
2023-04-09T07:58:37.698Z,162.34
2023-04-09T07:59:37.660Z,159.77
2023-04-09T08:00:37.654Z,162.51
2023-04-09T08:01:37.744Z,157.47
2023-04-09T08:02:37.776Z,157.90
2023-04-09T08:03:37.956Z,158.04
2023-04-09T08:04:37.772Z,154.86
2023-04-09T08:05:37.718Z,158.25
2023-04-09T08:06:37.734Z,155.21
2023-04-09T08:07:37.700Z,151.66
2023-04-09T08:08:37.732Z,153.73
2023-04-09T08:09:37.739Z,154.89
2023-04-09T08:10:37.748Z,153.25
2023-04-09T08:11:37.754Z,154.20
2023-04-09T08:12:37.746Z,152.83
2023-04-09T08:13:37.786Z,152.76
2023-04-09T08:14:37.788Z,149.71
2023-04-09T08:15:37.775Z,147.14
2023-04-09T08:16:37.825Z,148.23
2023-04-09T08:17:37.817Z,144.11
2023-04-09T08:18:37.794Z,143.89
2023-04-09T08:19:39.234Z,143.27
2023-04-09T08:20:38.064Z,146.24
2023-04-09T08:21:38.033Z,147.30
2023-04-09T08:22:38.048Z,148.47
2023-04-09T08:23:38.062Z,148.55
2023-04-09T08:24:38.088Z,151.37
2023-04-09T08:25:38.101Z,150.05
2023-04-09T08:26:38.112Z,150.09
2023-04-09T08:27:38.116Z,150.09
2023-04-09T08:28:38.137Z,147.47
2023-04-09T08:29:38.153Z,148.80
2023-04-09T08:30:38.144Z,146.41
2023-04-09T08:31:38.215Z,149.89
2023-04-09T08:32:38.222Z,150.79
2023-04-09T08:33:38.212Z,145.76
2023-04-09T08:34:38.201Z,140.33
2023-04-09T08:35:38.196Z,144.46
2023-04-09T08:36:38.230Z,154.56
2023-04-09T08:37:38.200Z,148.72
2023-04-09T08:38:38.296Z,138.71
2023-04-09T08:39:38.213Z,138.06
2023-04-09T08:40:38.230Z,140.78
2023-04-09T08:41:38.230Z,142.53
2023-04-09T08:42:38.321Z,148.29
2023-04-09T08:43:56.163Z,154.32
2023-04-09T08:44:39.294Z,154.87
2023-04-09T08:45:38.310Z,156.92
2023-04-09T08:46:38.269Z,160.77
2023-04-09T08:47:38.367Z,169.81
2023-04-09T08:48:38.382Z,183.93
2023-04-09T08:49:38.302Z,190.08
2023-04-09T08:50:38.296Z,195.76
2023-04-09T08:51:38.307Z,204.20
2023-04-09T08:52:38.305Z,207.57
2023-04-09T08:53:38.343Z,210.42
2023-04-09T08:54:38.466Z,218.46
2023-04-09T08:55:38.434Z,225.22
2023-04-09T08:56:38.486Z,229.71
2023-04-09T08:57:38.522Z,236.17
2023-04-09T08:58:38.587Z,239.38
2023-04-09T08:59:38.628Z,243.22
2023-04-09T09:00:38.761Z,247.23
2023-04-09T09:01:38.758Z,249.30
2023-04-09T09:02:38.828Z,249.45
2023-04-09T09:03:38.837Z,250.00
2023-04-09T09:04:38.804Z,250.00
2023-04-09T09:05:38.806Z,250.19
2023-04-09T09:06:38.875Z,251.41
2023-04-09T09:07:38.808Z,254.08
2023-04-09T09:08:38.809Z,261.38
2023-04-09T09:09:38.815Z,270.42
2023-04-09T09:10:38.798Z,252.68
2023-04-09T09:11:38.796Z,250.00
2023-04-09T09:12:38.879Z,249.87
2023-04-09T09:13:38.768Z,250.00
2023-04-09T09:14:38.792Z,250.00
2023-04-09T09:15:38.754Z,249.37
2023-04-09T09:16:38.799Z,249.56
2023-04-09T09:17:38.776Z,249.54
2023-04-09T09:18:38.761Z,249.03
2023-04-09T09:19:38.800Z,250.00
2023-04-09T09:20:38.739Z,250.00
2023-04-09T09:21:38.713Z,249.98
2023-04-09T09:22:38.726Z,247.93
2023-04-09T09:23:38.702Z,249.24
2023-04-09T09:24:38.714Z,249.34
2023-04-09T09:25:38.744Z,248.36
2023-04-09T09:26:38.802Z,250.00
2023-04-09T09:27:38.786Z,250.00
2023-04-09T09:28:38.792Z,248.04
2023-04-09T09:29:38.801Z,248.16
2023-04-09T09:30:38.855Z,248.85
2023-04-09T09:31:38.816Z,248.28
2023-04-09T09:32:38.864Z,249.26
2023-04-09T09:33:38.830Z,247.91
2023-04-09T09:34:38.835Z,248.03
2023-04-09T09:35:38.831Z,248.72
2023-04-09T09:36:38.818Z,249.28
2023-04-09T09:37:38.807Z,251.47
2023-04-09T09:38:38.974Z,254.25
2023-04-09T09:39:38.803Z,249.68
2023-04-09T09:40:38.793Z,248.71
2023-04-09T09:41:38.787Z,249.33
2023-04-09T09:42:38.793Z,249.02
2023-04-09T09:43:38.751Z,248.33
2023-04-09T09:44:38.764Z,250.00
2023-04-09T09:45:38.754Z,246.43
2023-04-09T09:46:38.802Z,247.84
2023-04-09T09:47:38.755Z,249.67
2023-04-09T09:48:38.889Z,249.44
2023-04-09T09:49:39.704Z,249.08
2023-04-09T09:50:38.690Z,250.00
2023-04-09T09:51:38.675Z,247.61
2023-04-09T09:52:38.676Z,248.57
2023-04-09T09:53:38.665Z,248.23
2023-04-09T09:54:38.668Z,248.81
2023-04-09T09:55:38.657Z,247.91
2023-04-09T09:56:38.649Z,248.42
2023-04-09T09:57:38.628Z,249.17
2023-04-09T09:58:38.636Z,248.70
2023-04-09T09:59:38.732Z,247.85
2023-04-09T10:00:38.676Z,249.40
2023-04-09T10:01:38.744Z,249.65
2023-04-09T10:02:38.816Z,250.04
2023-04-09T10:03:38.724Z,249.80
2023-04-09T10:04:38.735Z,249.26
2023-04-09T10:05:38.749Z,249.04
2023-04-09T10:06:38.773Z,249.76
2023-04-09T10:07:38.752Z,249.68
2023-04-09T10:08:38.850Z,249.09
2023-04-09T10:09:38.790Z,248.89
2023-04-09T10:10:38.820Z,247.17
2023-04-09T10:11:38.810Z,239.38
2023-04-09T10:12:38.827Z,238.25
2023-04-09T10:13:38.837Z,237.00
2023-04-09T10:14:38.837Z,235.01
2023-04-09T10:15:38.988Z,234.79
2023-04-09T10:16:38.849Z,238.12
2023-04-09T10:17:39.084Z,236.90
2023-04-09T10:18:38.870Z,237.64
2023-04-09T10:19:38.908Z,238.57
2023-04-09T10:20:38.901Z,234.19
2023-04-09T10:21:39.502Z,236.19
2023-04-09T10:22:38.917Z,235.62
2023-04-09T10:23:38.932Z,233.23
2023-04-09T10:24:38.956Z,233.01
2023-04-09T10:25:39.047Z,234.26
2023-04-09T10:26:38.979Z,233.00
2023-04-09T10:27:38.999Z,232.50
2023-04-09T10:28:39.008Z,232.08
2023-04-09T10:29:38.993Z,232.99
2023-04-09T10:30:39.032Z,225.45
2023-04-09T10:31:39.087Z,224.60
2023-04-09T10:32:39.132Z,224.96
2023-04-09T10:33:39.094Z,221.86
2023-04-09T10:34:39.065Z,227.61
2023-04-09T10:35:39.168Z,220.23
2023-04-09T10:36:39.073Z,220.35
2023-04-09T10:37:39.088Z,220.94
2023-04-09T10:38:39.065Z,221.77
2023-04-09T10:39:39.051Z,220.88
2023-04-09T10:40:39.031Z,225.51
2023-04-09T10:41:39.010Z,220.57
2023-04-09T10:42:38.992Z,220.74
2023-04-09T10:43:38.983Z,220.76
2023-04-09T10:44:38.983Z,222.60
2023-04-09T10:45:38.987Z,223.92
2023-04-09T10:46:38.987Z,221.15
2023-04-09T10:47:38.970Z,221.76
2023-04-09T10:48:38.931Z,223.21
2023-04-09T10:49:38.915Z,225.30
2023-04-09T10:50:38.975Z,217.82
2023-04-09T10:51:38.922Z,221.57
2023-04-09T10:52:38.903Z,220.87
2023-04-09T10:53:38.943Z,221.88
2023-04-09T10:54:38.870Z,213.73
2023-04-09T10:55:38.872Z,221.56
2023-04-09T10:56:38.862Z,219.86
2023-04-09T10:57:38.845Z,217.54
2023-04-09T10:58:38.828Z,220.48
2023-04-09T10:59:38.826Z,216.49
2023-04-09T11:00:38.821Z,213.99
2023-04-09T11:01:39.011Z,213.64
2023-04-09T11:02:38.987Z,212.52
2023-04-09T11:03:38.804Z,208.77
2023-04-09T11:04:38.800Z,214.15
2023-04-09T11:05:38.797Z,216.42
2023-04-09T11:06:38.783Z,218.26
2023-04-09T11:07:38.784Z,215.83
2023-04-09T11:08:39.005Z,215.26
2023-04-09T11:09:38.813Z,213.93
2023-04-09T11:10:38.804Z,215.79
2023-04-09T11:11:38.840Z,213.26
2023-04-09T11:12:38.834Z,212.69
2023-04-09T11:13:38.830Z,211.87
2023-04-09T11:14:38.816Z,211.52
2023-04-09T11:15:38.851Z,207.45
2023-04-09T11:16:38.922Z,212.10
2023-04-09T11:17:38.908Z,212.94
2023-04-09T11:18:38.856Z,210.88
2023-04-09T11:19:38.864Z,210.82
2023-04-09T11:20:38.908Z,210.15
2023-04-09T11:21:38.867Z,205.70
2023-04-09T11:22:38.881Z,209.97
2023-04-09T11:23:38.890Z,209.54
2023-04-09T11:24:38.891Z,210.18
2023-04-09T11:25:38.949Z,211.46
2023-04-09T11:26:38.915Z,216.55
2023-04-09T11:27:38.917Z,218.66
2023-04-09T11:28:38.930Z,217.05
2023-04-09T11:29:39.074Z,223.28
2023-04-09T11:30:38.907Z,221.05
2023-04-09T11:31:38.969Z,227.18
2023-04-09T11:32:38.936Z,225.50
2023-04-09T11:33:38.929Z,230.04
2023-04-09T11:34:38.918Z,233.04
2023-04-09T11:35:38.926Z,234.21
2023-04-09T11:36:39.006Z,234.41
2023-04-09T11:37:38.903Z,237.53
2023-04-09T11:38:38.912Z,236.64
2023-04-09T11:39:38.900Z,239.02
2023-04-09T11:40:38.889Z,239.19
2023-04-09T11:41:38.901Z,241.88
2023-04-09T11:42:38.883Z,241.56
2023-04-09T11:43:38.893Z,242.63
2023-04-09T11:44:39.134Z,242.25
2023-04-09T11:45:38.891Z,240.64
2023-04-09T11:46:38.941Z,247.72
2023-04-09T11:47:38.882Z,245.06
2023-04-09T11:48:38.900Z,250.00
2023-04-09T11:49:38.867Z,247.03
2023-04-09T11:50:38.842Z,245.34
2023-04-09T11:51:38.837Z,246.74
2023-04-09T11:52:38.842Z,250.52
2023-04-09T11:53:38.840Z,246.87
2023-04-09T11:54:38.800Z,247.81
2023-04-09T11:55:38.794Z,243.68
2023-04-09T11:56:38.809Z,249.30
2023-04-09T11:57:38.768Z,250.00
2023-04-09T11:58:38.776Z,246.70
2023-04-09T11:59:38.771Z,247.38
2023-04-09T12:00:38.753Z,244.36
2023-04-09T12:01:38.778Z,247.80
2023-04-09T12:02:38.948Z,247.13
2023-04-09T12:03:38.817Z,247.61
2023-04-09T12:04:38.854Z,250.06
2023-04-09T12:05:41.206Z,248.00
2023-04-09T12:06:38.705Z,244.76
2023-04-09T12:07:39.574Z,246.15
2023-04-09T12:08:38.695Z,247.80
2023-04-09T12:09:38.644Z,246.52
2023-04-09T12:10:38.676Z,250.57
2023-04-09T12:11:38.606Z,248.88
2023-04-09T12:12:38.570Z,246.12
2023-04-09T12:13:38.545Z,247.05
2023-04-09T12:14:38.524Z,243.37
2023-04-09T12:15:38.500Z,245.47
2023-04-09T12:16:38.559Z,247.68
2023-04-09T12:17:38.503Z,241.90
2023-04-09T12:18:38.446Z,246.67
2023-04-09T12:19:38.409Z,248.35
2023-04-09T12:20:38.392Z,248.74
2023-04-09T12:21:38.373Z,246.20
2023-04-09T12:22:38.363Z,245.07
2023-04-09T12:23:38.345Z,249.49
2023-04-09T12:24:38.331Z,245.37
2023-04-09T12:25:38.299Z,249.69
2023-04-09T12:26:38.305Z,243.22
2023-04-09T12:27:38.244Z,247.27
2023-04-09T12:28:38.232Z,246.10
2023-04-09T12:29:38.217Z,247.40
2023-04-09T12:30:38.193Z,245.40
2023-04-09T12:31:38.217Z,247.36
2023-04-09T12:32:38.193Z,247.42
2023-04-09T12:33:38.113Z,246.63
2023-04-09T12:34:38.096Z,247.62
2023-04-09T12:35:38.478Z,245.63
2023-04-09T12:36:38.048Z,247.55
2023-04-09T12:37:37.993Z,247.73